Gaschem Phoenix — ELUO6 — position and weather

sailwx.info

Track history (hours):
 
Tides and Currents Weather Stations Pressure Air Temp Water Temp Dewpoint Dewpoint Depression Visibility Wind Speed Wind Dir Waves Ship Positions

Gaschem Phoenix

Last reported at 2014-Oct-31 21:31 UTC. Time now 2014-Oct-31 21:38 UTC.
Position N 31°58' E 120°01'.

Length 100 m; draft 6.1 m.

Type: Ship. MMSI: 636090235.

Date/timePositionNaut miles runAvg speedWind from/ knotsBaromVisibWave heightAir tempDewpointWater temp
2014-Oct-31 21:31N 31°58' E 120°01'0 0.0
2014-Oct-31 15:33N 31°58' E 120°01'1110.8
2014-Oct-31 14:33N 31°56' E 120°13'1312.9
2014-Oct-31 13:33N 32°03' E 120°26'1211.9
2014-Oct-31 12:33N 31°60' E 120°39'1211.7
2014-Oct-31 11:33N 31°56' E 120°52'1212.1
2014-Oct-31 10:33N 31°47' E 121°01'1613.9
2014-Oct-31 09:26N 31°37' E 121°16'1112.9
2014-Oct-31 08:33N 31°30' E 121°26'12 9.3
2014-Oct-31 07:15N 31°22' E 121°37'6 8.9
2014-Oct-31 06:33N 31°18' E 121°43'  
2014-Oct-27 01:23N 35°03' E 139°41'8 9.7
2014-Oct-27 00:33N 35°10' E 139°45'1111.0
2014-Oct-26 23:33N 35°21' E 139°42'1312.5
2014-Oct-26 22:33N 35°30' E 139°53'8 0.5
2014-Oct-26 06:10N 35°32' E 140°03'4 0.3
2014-Oct-25 18:11N 35°33' E 139°58'0 0.0
2014-Oct-25 17:29N 35°33' E 139°58'6 6.6
2014-Oct-25 16:34N 35°29' E 139°53'1312.5
2014-Oct-25 15:33N 35°19' E 139°44'1110.9
2014-Oct-25 14:33N 35°08' E 139°46'10 9.1
2014-Oct-25 13:26N 35°01' E 139°38'  
Track history (hours):
 
Tides and Currents Weather Stations Pressure Air Temp Water Temp Dewpoint Dewpoint Depression Visibility Wind Speed Wind Dir Waves Ship Positions

Gaschem Phoenix

Last reported at 2014-Oct-31 21:31 UTC. Time now 2014-Oct-31 21:38 UTC.
Position N 31°58' E 120°01'.

Length 100 m; draft 6.1 m.

Type: Ship. MMSI: 636090235.

Date/timePositionNaut miles runAvg speedWind from/ knotsBaromVisibWave heightAir tempDewpointWater temp
2014-Oct-31 21:31N 31°58' E 120°01'0 0.0
2014-Oct-31 15:33N 31°58' E 120°01'1110.8
2014-Oct-31 14:33N 31°56' E 120°13'1312.9
2014-Oct-31 13:33N 32°03' E 120°26'1211.9
2014-Oct-31 12:33N 31°60' E 120°39'1211.7
2014-Oct-31 11:33N 31°56' E 120°52'1212.1
2014-Oct-31 10:33N 31°47' E 121°01'1613.9
2014-Oct-31 09:26N 31°37' E 121°16'1112.9
2014-Oct-31 08:33N 31°30' E 121°26'12 9.3
2014-Oct-31 07:15N 31°22' E 121°37'6 8.9
2014-Oct-31 06:33N 31°18' E 121°43'  
2014-Oct-27 01:23N 35°03' E 139°41'8 9.7
2014-Oct-27 00:33N 35°10' E 139°45'1111.0
2014-Oct-26 23:33N 35°21' E 139°42'1312.5
2014-Oct-26 22:33N 35°30' E 139°53'8 0.5
2014-Oct-26 06:10N 35°32' E 140°03'4 0.3
2014-Oct-25 18:11N 35°33' E 139°58'0 0.0
2014-Oct-25 17:29N 35°33' E 139°58'6 6.6
2014-Oct-25 16:34N 35°29' E 139°53'1312.5
2014-Oct-25 15:33N 35°19' E 139°44'1110.9
2014-Oct-25 14:33N 35°08' E 139°46'10 9.1
2014-Oct-25 13:26N 35°01' E 139°38'  

Dump ship's entire track history